Time;durP1;ratioP1;P1;durP2;ratioP2;P2;SDS_P1;SDS_P2;PMS_P1;PMS_P2;Temp;Humidity;BMP_temperature;BMP_pressure;BME280_temperature;BME280_humidity;BME280_pressure;Samples;Min_cycle;Max_cycle;Signal;HPM_P1;HPM_P2
2021/01/31 00:00:27;;;;;;;21.83;8.73;;;;;;;-0.09;68.08;98242.16;5116954;28;20047;-70
2021/01/31 00:03:01;;;;;;;25.33;9.27;;;;;;;-0.09;67.90;98240.50;5116784;28;20074;-70
2021/01/31 00:05:29;;;;;;;27.05;9.90;;;;;;;-0.07;68.01;98241.38;5117094;28;20044;-70
2021/01/31 00:07:57;;;;;;;25.13;9.57;;;;;;;-0.10;68.19;98241.31;5117065;28;20127;-70
2021/01/31 00:10:27;;;;;;;27.40;10.32;;;;;;;-0.08;68.26;98249.75;5116612;28;20397;-70
2021/01/31 00:12:55;;;;;;;28.08;10.43;;;;;;;-0.07;68.42;98253.91;5116761;28;20099;-70
2021/01/31 00:15:27;;;;;;;27.90;9.30;;;;;;;-0.05;68.30;98252.28;5116627;28;20489;-70
2021/01/31 00:17:56;;;;;;;28.02;10.27;;;;;;;-0.06;68.48;98249.75;5116635;28;20401;-70
2021/01/31 00:20:26;;;;;;;23.65;9.73;;;;;;;-0.20;68.78;98219.44;5116598;27;20036;-70
2021/01/31 00:22:54;;;;;;;26.08;9.82;;;;;;;-0.05;68.73;98244.75;5116405;28;20066;-70
2021/01/31 00:25:22;;;;;;;25.13;10.35;;;;;;;-0.05;68.68;98249.78;5116818;28;20043;-70
2021/01/31 00:27:51;;;;;;;25.40;9.63;;;;;;;-0.15;68.62;98237.91;5116659;28;20126;-69
2021/01/31 00:30:21;;;;;;;27.93;9.77;;;;;;;-0.02;68.83;98247.31;5116380;28;20101;-70
2021/01/31 00:32:51;;;;;;;25.48;10.65;;;;;;;0.01;68.53;98254.06;5116384;28;20100;-70
2021/01/31 00:35:20;;;;;;;23.08;9.35;;;;;;;-0.01;67.47;98256.53;5116194;28;20039;-70
2021/01/31 00:37:49;;;;;;;25.02;9.82;;;;;;;-0.12;67.67;98242.13;5116267;28;20094;-70
2021/01/31 00:40:17;;;;;;;25.40;10.18;;;;;;;-0.01;68.27;98256.53;5116318;28;20044;-70
2021/01/31 00:42:45;;;;;;;24.30;9.85;;;;;;;-0.13;68.26;98235.41;5116065;28;20038;-70
2021/01/31 00:45:16;;;;;;;31.90;10.48;;;;;;;-0.31;68.10;98205.03;5116028;28;20489;-70
2021/01/31 00:47:44;;;;;;;27.08;10.20;;;;;;;-0.02;67.92;98254.84;5116119;28;20078;-70
2021/01/31 00:50:15;;;;;;;28.52;10.27;;;;;;;-0.01;68.01;98251.53;5115980;28;20048;-70
2021/01/31 00:52:44;;;;;;;29.20;11.02;;;;;;;-0.02;67.97;98249.81;5115037;28;20501;-70
2021/01/31 00:55:14;;;;;;;29.50;11.68;;;;;;;-0.02;67.88;98249.81;5114671;28;20060;-70
2021/01/31 00:57:43;;;;;;;23.35;9.95;;;;;;;-0.01;68.01;98249.03;5116184;28;20485;-70
2021/01/31 01:00:18;;;;;;;26.60;10.68;;;;;;;0.02;68.41;98249.88;5114596;28;20074;-70
2021/01/31 01:02:48;;;;;;;22.77;9.75;;;;;;;0.00;68.38;98253.19;5115740;28;20044;-70
2021/01/31 01:05:24;;;;;;;24.10;9.93;;;;;;;-0.27;68.71;98212.63;5114521;28;20405;-70
2021/01/31 01:07:51;;;;;;;24.25;9.55;;;;;;;-0.03;68.52;98248.16;5115592;28;20044;-70
2021/01/31 01:10:22;;;;;;;26.98;10.02;;;;;;;-0.06;68.26;98232.19;5115354;28;20052;-70
2021/01/31 01:12:49;;;;;;;23.10;9.50;;;;;;;-0.03;68.38;98243.16;5115004;28;20485;-70
2021/01/31 01:15:21;;;;;;;29.13;10.70;;;;;;;-0.02;68.31;98249.81;5115413;28;20489;-70
2021/01/31 01:17:50;;;;;;;24.35;9.95;;;;;;;-0.01;68.22;98251.53;5115487;28;20050;-70
2021/01/31 01:20:17;;;;;;;23.98;8.88;;;;;;;-0.01;68.16;98246.53;5115307;28;20048;-70
2021/01/31 01:22:45;;;;;;;21.42;8.68;;;;;;;0.02;68.31;98244.88;5115268;28;20398;-70
2021/01/31 01:25:15;;;;;;;22.95;9.60;;;;;;;-0.10;68.46;98221.25;5115238;27;20489;-70
2021/01/31 01:27:43;;;;;;;22.60;9.30;;;;;;;0.06;68.22;98239.09;5115286;28;20127;-70
2021/01/31 01:30:14;;;;;;;24.15;9.80;;;;;;;0.08;68.31;98247.47;5115184;28;20044;-70
2021/01/31 01:32:49;;;;;;;18.42;8.05;;;;;;;0.06;68.44;98249.97;5115148;28;20187;-70
2021/01/31 01:35:17;;;;;;;26.70;9.18;;;;;;;0.06;68.34;98251.63;5115102;28;20489;-70
2021/01/31 01:37:46;;;;;;;22.20;9.48;;;;;;;0.08;68.18;98255.00;5115032;28;20040;-70
2021/01/31 01:40:19;;;;;;;25.40;9.10;;;;;;;0.06;68.07;98252.47;5115008;28;20036;-70
2021/01/31 01:42:46;;;;;;;24.13;8.70;;;;;;;0.02;67.78;98245.72;5115234;28;20048;-70
2021/01/31 01:45:15;;;;;;;23.20;9.18;;;;;;;0.06;67.78;98247.47;5114857;28;20378;-70
2021/01/31 01:47:44;;;;;;;27.77;9.27;;;;;;;0.04;67.97;98254.13;5114921;28;20043;-70
2021/01/31 01:50:22;;;;;;;22.60;8.97;;;;;;;0.05;67.82;98249.94;5114942;28;20105;-70
2021/01/31 01:52:51;;;;;;;22.95;8.90;;;;;;;0.05;67.81;98254.97;5115073;28;20477;-70
2021/01/31 01:55:22;;;;;;;21.70;8.50;;;;;;;-0.07;68.18;98236.38;5114811;28;20047;-70
2021/01/31 01:57:55;;;;;;;21.02;8.45;;;;;;;0.04;67.99;98255.78;5114694;28;20086;-70
2021/01/31 02:00:23;;;;;;;24.13;8.20;;;;;;;0.05;68.09;98255.78;5114687;28;20047;-70
2021/01/31 02:02:56;;;;;;;24.33;8.77;;;;;;;0.00;68.05;98248.19;5114551;28;20047;-70
2021/01/31 02:05:25;;;;;;;25.02;10.20;;;;;;;0.00;68.20;98253.19;5114560;28;20063;-70
2021/01/31 02:07:53;;;;;;;;;;;;;;;0.04;67.45;98253.25;5114904;28;20500;-70
2021/01/31 02:10:24;;;;;;;24.05;8.63;;;;;;;0.05;67.51;98262.50;5114278;28;20351;-70
2021/01/31 02:12:59;;;;;;;21.10;8.98;;;;;;;0.07;67.57;98270.88;5114441;28;20051;-70
2021/01/31 02:15:28;;;;;;;20.83;8.07;;;;;;;0.03;67.70;98271.63;5114460;28;20047;-70
2021/01/31 02:18:16;;;;;;;20.98;8.98;;;;;;;0.07;67.94;98271.72;5114366;28;20096;-70
2021/01/31 02:21:03;;;;;;;16.17;7.23;;;;;;;0.06;67.66;98277.56;5114367;28;20489;-70
2021/01/31 02:23:50;;;;;;;25.85;9.13;;;;;;;-0.04;68.01;98253.97;5113000;28;20039;-71
2021/01/31 02:26:22;;;;;;;25.30;9.43;;;;;;;-0.19;67.77;98246.16;5113817;28;20489;-70
2021/01/31 02:28:58;;;;;;;31.00;9.95;;;;;;;0.09;67.88;98274.25;5114403;28;20564;-71
2021/01/31 02:31:48;;;;;;;24.80;9.57;;;;;;;0.07;67.84;98275.91;5114215;28;20051;-70
2021/01/31 02:34:22;;;;;;;25.05;8.52;;;;;;;0.05;67.86;98275.84;5104933;28;20054;-69
2021/01/31 02:37:03;;;;;;;19.73;7.95;;;;;;;0.07;68.13;98278.41;5114108;28;20053;-69
2021/01/31 02:39:40;;;;;;;20.80;8.10;;;;;;;0.07;67.97;98283.41;5114124;28;20417;-70
2021/01/31 02:42:19;;;;;;;22.38;8.48;;;;;;;0.06;68.30;98291.75;5114059;28;20092;-70
2021/01/31 02:44:56;;;;;;;24.17;8.37;;;;;;;0.05;68.59;98295.09;5114082;28;20052;-71
2021/01/31 02:47:26;;;;;;;24.13;8.55;;;;;;;0.02;68.83;98300.03;5114381;28;20092;-70
2021/01/31 02:50:00;;;;;;;22.55;8.70;;;;;;;0.04;68.86;98295.88;5114081;28;20044;-70
2021/01/31 02:52:37;;;;;;;21.10;8.50;;;;;;;-0.02;68.67;98286.59;5113947;28;20043;-70
2021/01/31 02:55:09;;;;;;;21.73;8.95;;;;;;;0.05;68.67;98295.09;5114011;28;20136;-71
2021/01/31 02:57:42;;;;;;;19.90;8.55;;;;;;;0.05;68.81;98302.59;5113933;28;20071;-71
2021/01/31 03:00:14;;;;;;;24.63;9.13;;;;;;;0.04;68.31;98305.91;5113889;28;20050;-69
2021/01/31 03:02:51;;;;;;;21.60;8.50;;;;;;;0.03;68.01;98315.09;5113876;28;20054;-70
2021/01/31 03:05:26;;;;;;;22.98;9.48;;;;;;;0.07;68.02;98324.38;5113849;28;20050;-70
2021/01/31 03:08:01;;;;;;;22.10;8.43;;;;;;;0.07;68.08;98323.53;5113877;28;20044;-70
2021/01/31 03:10:32;;;;;;;22.25;8.80;;;;;;;0.05;67.97;98331.00;5113880;28;20134;-70
2021/01/31 03:13:07;;;;;;;21.13;8.25;;;;;;;0.04;67.95;98328.50;5113835;28;20036;-70
2021/01/31 03:15:41;;;;;;;26.50;9.38;;;;;;;-0.05;68.33;98314.94;5112885;28;20067;-70
2021/01/31 03:18:14;;;;;;;20.50;8.48;;;;;;;0.00;68.69;98320.91;5113756;28;20051;-70
2021/01/31 03:20:52;;;;;;;23.83;8.35;;;;;;;0.03;68.33;98321.78;5114082;28;20055;-70
2021/01/31 03:23:24;;;;;;;24.17;9.00;;;;;;;0.05;68.33;98330.19;5112661;28;20482;-70
2021/01/31 03:25:56;;;;;;;20.40;8.43;;;;;;;0.03;68.10;98324.28;5113741;28;20109;-70
2021/01/31 03:28:24;;;;;;;23.38;8.32;;;;;;;-0.04;68.16;98316.66;5113667;28;20109;-70
2021/01/31 03:30:53;;;;;;;21.45;8.40;;;;;;;0.00;68.52;98320.91;5112403;28;20126;-70
2021/01/31 03:33:26;;;;;;;21.70;8.18;;;;;;;-0.03;68.58;98323.38;5113646;28;20055;-70
2021/01/31 03:35:57;;;;;;;22.15;8.60;;;;;;;-0.01;68.46;98321.72;5114160;28;20055;-70
2021/01/31 03:38:28;;;;;;;18.98;7.78;;;;;;;-0.02;68.35;98325.03;5116248;28;20055;-70
2021/01/31 03:41:01;;;;;;;20.52;8.30;;;;;;;-0.01;68.25;98311.69;5117501;28;20564;-71
2021/01/31 03:43:30;;;;;;;21.70;7.82;;;;;;;0.02;68.17;98310.91;5117344;28;20122;-70
2021/01/31 03:46:05;;;;;;;22.17;7.47;;;;;;;0.00;68.33;98308.38;5117192;28;20047;-70
2021/01/31 03:48:39;;;;;;;20.25;8.02;;;;;;;-0.02;68.20;98320.03;5117547;28;20054;-70
2021/01/31 03:51:08;;;;;;;21.77;7.85;;;;;;;-0.26;67.57;98288.63;5117539;28;20447;-70
2021/01/31 03:53:36;;;;;;;18.00;7.63;;;;;;;-0.17;67.68;98299.69;5117174;28;20049;-70
2021/01/31 03:56:05;;;;;;;18.27;7.05;;;;;;;-0.06;67.81;98312.44;5117014;28;20050;-70
2021/01/31 03:58:35;;;;;;;21.40;7.70;;;;;;;-0.07;68.22;98316.59;5117366;28;20047;-70
2021/01/31 04:01:05;;;;;;;19.00;7.65;;;;;;;-0.04;68.37;98321.66;5116946;28;20401;-70
2021/01/31 04:03:38;;;;;;;17.42;7.03;;;;;;;-0.10;68.20;98321.53;5116845;28;20097;-70
2021/01/31 04:06:10;;;;;;;18.85;6.82;;;;;;;-0.01;67.92;98326.75;5117264;28;20126;-70
2021/01/31 04:08:40;;;;;;;18.83;6.82;;;;;;;-0.03;67.69;98328.38;5117129;28;20052;-70
2021/01/31 04:11:08;;;;;;;17.38;7.10;;;;;;;-0.56;67.47;98233.78;5116662;28;20055;-70
2021/01/31 04:13:37;;;;;;;18.88;7.35;;;;;;;-0.04;67.36;98321.66;5116776;28;20059;-70
2021/01/31 04:16:07;;;;;;;17.42;6.70;;;;;;;-0.03;67.49;98328.38;5116660;28;20056;-70
2021/01/31 04:18:35;;;;;;;20.17;7.43;;;;;;;-0.04;67.24;98334.19;5115521;28;20050;-70
2021/01/31 04:21:04;;;;;;;20.58;7.30;;;;;;;-0.03;66.98;98335.06;5116762;28;20047;-70
2021/01/31 04:23:32;;;;;;;19.67;6.95;;;;;;;-0.08;66.94;98342.50;5116488;28;20108;-70
2021/01/31 04:26:00;;;;;;;16.38;6.40;;;;;;;-0.14;67.52;98339.84;5116473;28;20051;-70
2021/01/31 04:28:27;;;;;;;18.10;6.65;;;;;;;-0.08;67.33;98354.19;5116429;28;20050;-70
2021/01/31 04:30:57;;;;;;;14.68;5.90;;;;;;;-0.08;67.11;98357.53;5116407;28;20031;-70
2021/01/31 04:33:26;;;;;;;;;;;;;;;-0.09;67.15;98363.34;5117029;28;20052;-70
2021/01/31 04:35:54;;;;;;;15.80;5.60;;;;;;;-0.27;66.93;98327.06;5116342;28;19919;-70
2021/01/31 04:38:22;;;;;;;13.90;4.95;;;;;;;-0.09;66.87;98354.97;5116293;28;20135;-70
2021/01/31 04:40:58;;;;;;;14.52;5.90;;;;;;;-0.36;67.00;98315.19;5116226;28;20072;-70
2021/01/31 04:43:26;;;;;;;17.23;6.50;;;;;;;-0.11;67.32;98364.13;5116100;28;20110;-70
2021/01/31 04:45:55;;;;;;;16.95;6.20;;;;;;;-0.16;67.23;98369.06;5115099;28;20089;-70
2021/01/31 04:48:38;;;;;;;14.23;6.63;;;;;;;-0.26;67.35;98358.81;5115128;28;20532;-70
2021/01/31 04:51:17;;;;;;;17.15;6.47;;;;;;;-0.17;67.31;98384.91;5116026;28;20067;-70
2021/01/31 04:54:10;;;;;;;15.98;6.35;;;;;;;-0.16;67.60;98386.59;5116314;28;20054;-70
2021/01/31 04:56:52;;;;;;;17.92;6.95;;;;;;;-0.20;68.33;98384.88;5115907;28;20052;-70
2021/01/31 04:59:28;;;;;;;15.23;6.32;;;;;;;-0.20;68.20;98389.88;5115925;27;20497;-70
2021/01/31 05:02:04;;;;;;;18.42;7.05;;;;;;;-0.23;68.69;98392.31;5115885;28;20047;-70
2021/01/31 05:04:34;;;;;;;19.83;6.70;;;;;;;-0.23;68.39;98399.84;5115777;28;20051;-70
2021/01/31 05:07:06;;;;;;;16.48;7.03;;;;;;;-0.23;68.64;98404.84;5115812;28;20127;-70
2021/01/31 05:09:35;;;;;;;17.58;7.47;;;;;;;-0.25;68.70;98406.47;5115495;28;20060;-70
2021/01/31 05:12:13;;;;;;;17.83;6.47;;;;;;;-0.24;68.51;98404.81;5115645;28;20098;-70
2021/01/31 05:14:53;;;;;;;14.52;5.95;;;;;;;-0.24;68.28;98408.16;5115525;28;20321;-69
2021/01/31 05:17:23;;;;;;;17.55;7.30;;;;;;;-0.22;68.00;98411.56;5115559;28;20048;-70
2021/01/31 05:19:51;;;;;;;16.88;6.90;;;;;;;-0.27;68.55;98413.13;5115371;28;20461;-70
2021/01/31 05:22:26;;;;;;;18.70;6.95;;;;;;;-0.26;68.47;98414.81;5115531;28;20047;-70
2021/01/31 05:24:55;;;;;;;18.17;7.13;;;;;;;-0.24;67.94;98418.19;5115376;28;20043;-70
2021/01/31 05:27:29;;;;;;;18.85;7.82;;;;;;;-0.23;67.30;98409.84;5115367;28;20055;-70
2021/01/31 05:29:57;;;;;;;18.60;7.03;;;;;;;-0.30;67.18;98403.03;5115255;28;20496;-70
2021/01/31 05:32:25;;;;;;;20.10;7.32;;;;;;;-0.26;67.71;98424.81;5115168;28;20430;-70
2021/01/31 05:34:55;;;;;;;16.00;6.65;;;;;;;-0.30;67.86;98425.56;5115686;28;20479;-70
2021/01/31 05:37:25;;;;;;;17.58;7.32;;;;;;;-0.30;67.86;98427.22;5115318;28;20047;-70
2021/01/31 05:39:56;;;;;;;17.50;6.43;;;;;;;-0.31;67.87;98428.88;5115323;28;20052;-70
2021/01/31 05:42:28;;;;;;;18.48;6.50;;;;;;;-0.36;68.03;98432.13;5114986;28;20070;-71
2021/01/31 05:45:01;;;;;;;14.57;6.47;;;;;;;-0.41;68.21;98427.03;5114995;28;20043;-71
2021/01/31 05:47:35;;;;;;;15.25;5.93;;;;;;;-0.40;68.19;98441.22;5115154;28;20056;-71
2021/01/31 05:50:22;;;;;;;17.77;6.32;;;;;;;-0.43;67.94;98446.16;5114870;28;20073;-71
2021/01/31 05:52:50;;;;;;;14.40;6.13;;;;;;;-0.51;68.08;98437.66;5114847;28;20044;-71
2021/01/31 05:55:28;;;;;;;14.35;6.35;;;;;;;-0.49;68.53;98446.03;5114733;28;20039;-70
2021/01/31 05:58:04;;;;;;;13.00;5.82;;;;;;;-0.51;68.64;98447.66;5114768;28;20054;-71
2021/01/31 06:00:33;;;;;;;14.30;5.20;;;;;;;-0.50;68.68;98449.34;5114579;28;20044;-71
2021/01/31 06:03:02;;;;;;;;;;;;;;;-0.59;68.36;98454.16;5115246;28;20120;-71
2021/01/31 06:05:30;;;;;;;15.95;5.78;;;;;;;-0.61;68.71;98455.78;5114505;28;19919;-71
2021/01/31 06:08:02;;;;;;;10.77;4.13;;;;;;;-0.61;68.91;98463.28;5114463;28;20139;-71
2021/01/31 06:10:32;;;;;;;13.55;5.40;;;;;;;-0.71;69.11;98449.72;5114434;28;20311;-71
2021/01/31 06:13:07;;;;;;;16.73;5.57;;;;;;;-0.74;69.28;98468.81;5114458;28;20054;-70
2021/01/31 06:15:42;;;;;;;12.95;5.43;;;;;;;-0.74;69.55;98463.78;5114421;28;20055;-71
2021/01/31 06:18:18;;;;;;;11.15;5.20;;;;;;;-0.72;69.62;98467.22;5114361;28;20096;-70
2021/01/31 06:20:47;;;;;;;17.05;6.05;;;;;;;-0.79;70.05;98465.34;5114321;28;20051;-71
2021/01/31 06:23:20;;;;;;;13.07;5.07;;;;;;;-0.83;70.43;98468.59;5114481;28;20503;-71
2021/01/31 06:25:48;;;;;;;13.77;5.63;;;;;;;-0.74;70.36;98478.81;5114157;28;20134;-70
2021/01/31 06:28:23;;;;;;;15.30;6.13;;;;;;;-0.69;70.32;98477.28;5114161;28;20472;-70
2021/01/31 06:31:08;;;;;;;13.85;5.20;;;;;;;-0.64;70.30;98479.88;5114245;28;20055;-70
2021/01/31 06:33:40;;;;;;;11.57;5.03;;;;;;;-0.71;70.38;98464.72;5114176;28;20047;-70
2021/01/31 06:36:21;;;;;;;15.05;5.35;;;;;;;-0.67;70.55;98465.63;5114103;28;20048;-70
2021/01/31 06:39:00;;;;;;;17.08;6.07;;;;;;;-0.56;70.42;98488.44;5114055;28;20546;-70
2021/01/31 06:41:47;;;;;;;11.68;4.82;;;;;;;-0.74;70.74;98463.78;5114152;28;20055;-70
2021/01/31 06:44:27;;;;;;;14.50;5.35;;;;;;;-0.51;70.68;98489.41;5113970;28;20071;-70
2021/01/31 06:47:19;;;;;;;14.07;6.13;;;;;;;-0.49;70.37;98485.28;5113994;28;20052;-70
2021/01/31 06:49:59;;;;;;;14.40;6.32;;;;;;;-0.43;70.36;98486.25;5113493;28;20044;-70
2021/01/31 06:52:40;;;;;;;19.40;6.38;;;;;;;-0.38;70.14;98494.72;5113993;28;20555;-70
2021/01/31 06:55:32;;;;;;;15.82;5.82;;;;;;;-0.36;69.78;98488.06;5113941;28;20051;-70
2021/01/31 06:58:27;;;;;;;18.38;6.63;;;;;;;-0.33;69.82;98493.16;5112681;28;20059;-70
2021/01/31 07:01:06;;;;;;;15.60;6.25;;;;;;;-0.32;69.76;98494.88;5113874;28;20067;-71
2021/01/31 07:03:45;;;;;;;15.02;5.70;;;;;;;-0.29;69.59;98494.91;5113758;28;20067;-70
2021/01/31 07:06:40;;;;;;;18.40;5.93;;;;;;;-0.25;69.73;98494.19;5113806;28;20075;-70
2021/01/31 07:09:27;;;;;;;15.77;6.03;;;;;;;-0.21;69.64;98493.44;5113533;28;20048;-71
2021/01/31 07:12:02;;;;;;;12.00;5.50;;;;;;;-0.28;69.63;98473.22;5115989;28;20078;-71
2021/01/31 07:14:40;;;;;;;16.88;5.88;;;;;;;-0.13;69.49;98503.66;5118207;27;20047;-71
2021/01/31 07:17:19;;;;;;;13.00;6.05;;;;;;;-0.07;69.62;98507.13;5117819;28;20055;-70
2021/01/31 07:19:53;;;;;;;10.18;4.95;;;;;;;0.00;69.64;98508.94;5117348;28;20093;-72
2021/01/31 07:22:26;;;;;;;12.00;5.50;;;;;;;-0.10;69.36;98498.72;5096284;28;20054;-71
2021/01/31 07:25:01;;;;;;;16.85;6.30;;;;;;;0.05;68.88;98500.69;5097321;28;20036;-70
2021/01/31 07:27:37;;;;;;;13.32;5.85;;;;;;;0.08;68.76;98500.75;5097287;28;20050;-71
2021/01/31 07:30:14;;;;;;;11.57;5.07;;;;;;;0.06;68.65;98497.38;5097219;28;20501;-71
2021/01/31 07:32:59;;;;;;;12.38;5.65;;;;;;;0.11;68.49;98503.31;5097150;28;20409;-71
2021/01/31 07:35:33;;;;;;;15.13;6.10;;;;;;;0.14;68.17;98500.88;5097640;28;20432;-70
2021/01/31 07:38:09;;;;;;;13.68;5.78;;;;;;;0.20;68.07;98503.50;5097043;28;20507;-71
2021/01/31 07:40:37;;;;;;;13.98;5.65;;;;;;;0.25;68.06;98501.94;5097284;28;20098;-71
2021/01/31 07:43:06;;;;;;;15.07;5.57;;;;;;;0.29;68.06;98501.22;5096834;28;20040;-71
2021/01/31 07:45:34;;;;;;;11.57;5.28;;;;;;;0.23;67.31;98501.06;5096775;28;20089;-71
2021/01/31 07:48:08;;;;;;;14.13;5.53;;;;;;;0.25;66.64;98506.97;5096860;28;20036;-71
2021/01/31 07:50:40;;;;;;;13.00;6.35;;;;;;;0.30;65.99;98507.91;5096761;28;20046;-71
2021/01/31 07:53:09;;;;;;;11.88;5.20;;;;;;;0.19;65.59;98486.78;5096688;28;20082;-71
2021/01/31 07:55:40;;;;;;;12.07;4.88;;;;;;;0.28;65.02;98509.53;5096612;28;20070;-71
2021/01/31 07:58:38;;;;;;;12.70;5.00;;;;;;;0.27;65.23;98497.81;5074315;28;20526;-71
2021/01/31 08:01:13;;;;;;;11.20;5.07;;;;;;;0.33;65.24;98502.97;5074308;28;20059;-71
2021/01/31 08:03:44;;;;;;;12.68;5.03;;;;;;;0.33;64.98;98507.97;5074211;28;20041;-71
2021/01/31 08:06:40;;;;;;;13.52;5.07;;;;;;;0.41;65.12;98506.44;5034371;28;20057;-71
2021/01/31 08:09:10;;;;;;;15.63;5.20;;;;;;;0.45;64.80;98510.75;5034088;28;20086;-71
2021/01/31 08:11:54;;;;;;;10.98;4.40;;;;;;;0.56;64.59;98521.81;5034021;28;20121;-71
2021/01/31 08:14:28;;;;;;;12.15;4.63;;;;;;;0.64;64.52;98517.81;5034104;28;20052;-71
2021/01/31 08:16:56;;;;;;;11.60;5.10;;;;;;;0.75;64.42;98513.81;5034055;28;20504;-72
2021/01/31 08:19:29;;;;;;;11.95;5.10;;;;;;;0.77;64.58;98502.16;5033881;28;20041;-71
2021/01/31 08:22:00;;;;;;;13.18;4.78;;;;;;;0.96;64.26;98519.25;5033584;28;20049;-71
2021/01/31 08:24:33;;;;;;;13.85;5.13;;;;;;;1.14;64.15;98522.09;5033284;28;20052;-71
2021/01/31 08:27:02;;;;;;;12.20;4.90;;;;;;;1.24;63.62;98506.38;5017414;28;20499;-71
2021/01/31 08:29:33;;;;;;;10.88;4.40;;;;;;;1.09;62.55;98511.13;5033878;28;20538;-71
2021/01/31 08:32:15;;;;;;;11.25;4.85;;;;;;;0.99;62.97;98486.66;5032383;28;20061;-72
2021/01/31 08:34:49;;;;;;;11.98;4.85;;;;;;;1.16;63.31;98517.94;5031013;28;20057;-71
2021/01/31 08:37:22;;;;;;;13.32;5.10;;;;;;;1.16;63.16;98528.00;4997593;28;20151;-71
2021/01/31 08:39:51;;;;;;;11.48;5.03;;;;;;;1.12;62.87;98530.44;5013721;28;20451;-71
2021/01/31 08:42:19;;;;;;;10.82;4.78;;;;;;;1.12;62.53;98535.44;5008815;28;20066;-72
2021/01/31 08:44:54;;;;;;;12.05;4.63;;;;;;;1.21;63.15;98536.47;5090914;28;20047;-71
2021/01/31 08:47:22;;;;;;;13.68;4.97;;;;;;;1.23;62.29;98534.81;5105222;28;20097;-71
2021/01/31 08:49:56;;;;;;;13.05;5.15;;;;;;;1.28;61.62;98538.25;5115814;28;20051;-71
2021/01/31 08:52:25;;;;;;;12.82;5.78;;;;;;;1.28;61.71;98520.66;5115419;28;20058;-71
2021/01/31 08:54:58;;;;;;;13.88;5.88;;;;;;;1.68;62.01;98544.78;5115539;27;20073;-71
2021/01/31 08:57:26;;;;;;;10.68;5.05;;;;;;;1.66;60.36;98540.53;5115647;28;20052;-71
2021/01/31 08:59:55;;;;;;;12.45;5.03;;;;;;;1.83;59.51;98545.00;5113793;28;20039;-71
2021/01/31 09:02:25;;;;;;;11.80;4.50;;;;;;;1.91;60.09;98542.63;5114753;28;20044;-71
2021/01/31 09:04:57;;;;;;;14.27;5.30;;;;;;;1.78;59.20;98551.63;5114868;28;20440;-71
2021/01/31 09:07:31;;;;;;;9.80;4.30;;;;;;;1.72;58.56;98556.59;5115722;28;20468;-69
2021/01/31 09:10:06;;;;;;;10.52;4.50;;;;;;;1.69;57.42;98550.66;5115098;28;20489;-70
2021/01/31 09:12:34;;;;;;;11.15;4.40;;;;;;;1.79;56.88;98552.50;5114222;28;20047;-70
2021/01/31 09:15:07;;;;;;;11.45;4.90;;;;;;;1.92;57.69;98560.25;5115242;28;20431;-70
2021/01/31 09:17:35;;;;;;;11.23;4.72;;;;;;;2.08;57.22;98561.31;5115258;28;20131;-70
2021/01/31 09:20:09;;;;;;;10.85;4.88;;;;;;;1.99;55.57;98567.06;5115045;28;20554;-70
2021/01/31 09:22:41;;;;;;;12.07;4.53;;;;;;;2.20;56.22;98559.00;5115039;28;20126;-70
2021/01/31 09:25:11;;;;;;;10.82;5.20;;;;;;;2.27;55.45;98557.41;5115275;28;20469;-70
2021/01/31 09:27:47;;;;;;;10.70;4.90;;;;;;;2.66;56.48;98563.78;5114873;28;20047;-70
2021/01/31 09:30:19;;;;;;;11.20;4.43;;;;;;;2.92;55.04;98545.63;5115774;28;20153;-70
2021/01/31 09:32:51;;;;;;;11.00;4.95;;;;;;;3.14;54.45;98557.63;5113957;28;20040;-70
2021/01/31 09:35:24;;;;;;;9.45;4.47;;;;;;;3.40;54.80;98556.19;5114783;28;20051;-70
2021/01/31 09:37:55;;;;;;;10.65;4.32;;;;;;;3.58;53.17;98556.34;5115151;28;20497;-69
2021/01/31 09:40:23;;;;;;;10.68;4.55;;;;;;;3.58;53.44;98568.97;5115010;28;20056;-70
2021/01/31 09:42:50;;;;;;;10.77;4.72;;;;;;;3.31;53.35;98569.56;5114885;28;20046;-70
2021/01/31 09:45:29;;;;;;;8.70;4.50;;;;;;;3.09;54.46;98566.81;5114844;28;20043;-70
2021/01/31 09:47:57;;;;;;;10.70;4.70;;;;;;;2.92;52.96;98570.81;5115136;28;20169;-70
2021/01/31 09:50:25;;;;;;;10.40;4.47;;;;;;;3.19;53.30;98576.16;5114646;28;20044;-70
2021/01/31 09:52:56;;;;;;;11.30;4.63;;;;;;;3.53;52.14;98567.25;5114318;28;20055;-70
2021/01/31 09:55:26;;;;;;;9.00;4.50;;;;;;;3.24;51.60;98539.22;5114951;28;20039;-70
2021/01/31 09:57:55;;;;;;;10.88;4.80;;;;;;;3.33;51.52;98570.44;5115282;28;20043;-70
2021/01/31 10:00:27;;;;;;;10.75;5.28;;;;;;;3.51;53.30;98573.94;5114654;28;20036;-70
2021/01/31 10:03:00;;;;;;;9.45;4.63;;;;;;;3.71;52.33;98577.50;5113402;28;20054;-70
2021/01/31 10:05:28;;;;;;;10.75;4.90;;;;;;;3.95;52.93;98570.97;5114966;28;20052;-70
2021/01/31 10:08:04;;;;;;;12.48;5.15;;;;;;;3.77;51.41;98527.91;5113334;28;20060;-70
2021/01/31 10:10:35;;;;;;;11.35;4.72;;;;;;;3.86;50.28;98572.59;5114191;28;20135;-69
2021/01/31 10:13:09;;;;;;;14.13;6.20;;;;;;;3.88;50.65;98566.72;5114220;28;20079;-69
2021/01/31 10:15:38;;;;;;;12.07;5.13;;;;;;;3.90;51.04;98570.09;5114406;28;20067;-69
2021/01/31 10:18:11;;;;;;;12.48;4.93;;;;;;;3.88;50.88;98540.63;5114287;28;20071;-70
2021/01/31 10:20:41;;;;;;;10.25;4.25;;;;;;;4.12;49.90;98568.56;5110460;28;20470;-69
2021/01/31 10:23:14;;;;;;;10.98;4.88;;;;;;;4.42;49.84;98566.22;5103916;28;20113;-69
2021/01/31 10:25:58;;;;;;;12.38;5.30;;;;;;;4.44;49.13;98568.78;5096408;28;20047;-69
2021/01/31 10:28:32;;;;;;;11.20;4.75;;;;;;;4.74;49.66;98561.31;5093793;28;20059;-70
2021/01/31 10:31:00;;;;;;;10.57;5.15;;;;;;;4.86;48.79;98561.38;5093738;28;20048;-69
2021/01/31 10:33:43;;;;;;;12.43;4.82;;;;;;;4.32;49.41;98559.41;5094321;28;20077;-69
2021/01/31 10:36:16;;;;;;;16.17;5.35;;;;;;;4.33;49.74;98560.28;5093896;28;20379;-69
2021/01/31 10:38:45;;;;;;;12.05;4.90;;;;;;;4.30;49.81;98566.13;5093783;28;20482;-69
2021/01/31 10:41:13;;;;;;;11.77;5.10;;;;;;;4.03;50.18;98566.81;5093712;28;20047;-70
2021/01/31 10:43:41;;;;;;;12.45;5.50;;;;;;;4.25;50.21;98566.97;5092719;28;20044;-70
2021/01/31 10:46:08;;;;;;;12.55;4.95;;;;;;;4.19;50.56;98561.88;5092827;28;20492;-70
2021/01/31 10:48:37;;;;;;;12.52;5.25;;;;;;;4.59;51.08;98566.31;5093681;28;20068;-69
2021/01/31 10:51:05;;;;;;;13.15;5.28;;;;;;;4.92;50.30;98551.28;5093433;28;20044;-69
2021/01/31 10:53:33;;;;;;;14.90;6.10;;;;;;;4.90;49.61;98554.63;5093494;28;20044;-69
2021/01/31 10:56:01;;;;;;;11.90;5.20;;;;;;;5.02;49.67;98555.53;5093535;28;20044;-69
2021/01/31 10:58:31;;;;;;;11.80;5.28;;;;;;;5.16;49.39;98553.06;5093513;28;20060;-70
2021/01/31 11:00:58;;;;;;;12.73;5.40;;;;;;;5.27;48.49;98556.44;5093350;28;20102;-69
2021/01/31 11:03:26;;;;;;;16.48;5.88;;;;;;;5.50;47.94;98561.50;5093326;28;20044;-70
2021/01/31 11:05:54;;;;;;;13.52;5.55;;;;;;;5.52;48.09;98559.84;5093450;28;20039;-70
2021/01/31 11:08:22;;;;;;;16.27;5.45;;;;;;;5.50;48.18;98564.03;5093442;28;20047;-70
2021/01/31 11:10:49;;;;;;;13.73;5.68;;;;;;;5.69;48.17;98565.75;5093405;28;20082;-70
2021/01/31 11:13:18;;;;;;;13.68;5.25;;;;;;;5.65;48.43;98574.19;5093408;28;20044;-70
2021/01/31 11:15:46;;;;;;;11.15;4.72;;;;;;;5.03;48.50;98551.31;5093351;28;20048;-70
2021/01/31 11:18:14;;;;;;;15.18;6.32;;;;;;;4.93;48.90;98575.72;5093337;28;20047;-71
2021/01/31 11:20:42;;;;;;;13.43;5.65;;;;;;;4.67;48.70;98574.78;5093304;28;20032;-71
2021/01/31 11:23:09;;;;;;;13.77;6.22;;;;;;;4.60;48.97;98555.38;5093070;28;20090;-70
2021/01/31 11:25:38;;;;;;;11.43;5.43;;;;;;;4.56;49.51;98569.66;5093260;28;20044;-70
2021/01/31 11:28:08;;;;;;;13.30;5.68;;;;;;;5.13;50.54;98569.06;5093191;28;20036;-70
2021/01/31 11:30:37;;;;;;;13.60;5.20;;;;;;;5.22;49.91;98564.00;5092060;28;20127;-70
2021/01/31 11:33:05;;;;;;;11.45;6.25;;;;;;;5.31;50.00;98558.97;5092024;28;20630;-70
2021/01/31 11:35:33;;;;;;;15.60;6.57;;;;;;;5.33;50.52;98547.16;5093226;28;20032;-70
2021/01/31 11:38:05;;;;;;;13.90;6.30;;;;;;;5.62;50.11;98559.00;5093236;28;20123;-70
2021/01/31 11:40:33;;;;;;;16.67;7.03;;;;;;;5.91;50.37;98559.88;5093182;28;20032;-70
2021/01/31 11:43:01;;;;;;;14.10;6.97;;;;;;;5.93;49.97;98560.72;5092130;28;20044;-70
2021/01/31 11:45:29;;;;;;;17.48;7.50;;;;;;;5.93;49.00;98555.66;5093083;28;20047;-70
2021/01/31 11:47:59;;;;;;;;;;;;;;;5.90;48.91;98553.97;5093603;28;20086;-70
2021/01/31 11:50:27;;;;;;;15.07;7.43;;;;;;;5.76;49.18;98550.56;5093041;28;19955;-70
2021/01/31 11:52:55;;;;;;;13.90;6.75;;;;;;;6.15;48.95;98552.28;5093422;28;20086;-70
2021/01/31 11:55:23;;;;;;;15.55;6.82;;;;;;;6.17;48.40;98550.56;5092986;28;20047;-70